Milano, TX (76556)

3:00 AM CST on December 05, 2016 (GMT -0600)
APRSWXNET | | Change Station

Elev 471 ft 30.80 °N, 96.76 °W | Updated 23 minutes ago

Overcast
Overcast
47 °F
Feels Like 47 °F
N
1
Wind Variable Wind from NW
Gusts 4.0 mph

Today
High -- | Low -- °F
--% Chance of Precip.
Yesterday
High -- | Low -- °F
Precip. -- in
Pressure 29.94 in
Visibility 10.0 miles
Clouds Mostly Cloudy 1400 ft
Overcast 3600 ft
Windchill 47 °F
Dew Point 46 °F
Humidity 96%
Rainfall in
Snow Depth Not available.
7:10 AM 5:25 PM
Waxing Crescent, 30% visible
METAR KT35 050855Z AUTO 02006KT 10SM BKN014 OVC036 09/08 A2994 RMK AO2 60001 T00900082
Pressure 29.94 in
Visibility 10.0 miles
Clouds Mostly Cloudy 1400 ft
Overcast 3600 ft
Windchill 47 °F
Dew Point 46 °F
Humidity 96%
Rainfall in
Snow Depth Not available.
7:10 AM 5:25 PM
Waxing Crescent, 30% visible
METAR KT35 050855Z AUTO 02006KT 10SM BKN014 OVC036 09/08 A2994 RMK AO2 60001 T00900082

10-Day Weather Forecast

Almanac

Astronomy

Dec. 05, 2016 Rise Set
Actual Time
Civil Twilight
Nautical Twilight
Astronomical Twilight
Moon
Length of Visible Light
Length of Day
Tomorrow will be .
, % of the Moon is Illuminated

Today's Extremes

State Highs State Lows

Community

WunderPhotos

Upload Photos

1,955,771 photos uploaded!

WunderBlog® & News

Nearby

Air Quality

  Air Quality AQ Index Pollutant
Not available.

Snow Depth

Station Depth Elevation

Earthquake Activity

City Distance Mag. Time & Date
Minimum magnitude displayed is 2.5.

Coastal Water Temperatures

Place Temperature

Stations

Nearby Weather Stations

Station Location Temp. Windchill Dew Point Humidity Wind Precip. Elev Updated Type
                   

Watches & Warnings

There are currently no watches in effect.